Time;durP1;ratioP1;P1;durP2;ratioP2;P2;SDS_P1;SDS_P2;PMS_P1;PMS_P2;Temp;Humidity;BMP_temperature;BMP_pressure;BME280_temperature;BME280_humidity;BME280_pressure;Samples;Min_cycle;Max_cycle;Signal;HPM_P1;HPM_P2
2022/03/12 00:01:20;;;;;;;;;;;15.90;38.90;;;;;;5005874;28;43020;-76
2022/03/12 00:03:47;;;;;;;;;;;16.00;38.90;;;;;;5017186;28;45371;-75
2022/03/12 00:06:13;;;;;;;;;;;16.00;38.90;;;;;;5025237;28;43028;-78
2022/03/12 00:08:46;;;;;;;;;;;16.00;39.00;;;;;;5025348;28;43384;-76
2022/03/12 00:11:16;;;;;;;;;;;16.00;38.90;;;;;;5025039;28;42979;-76
2022/03/12 00:13:42;;;;;;;;;;;15.90;38.90;;;;;;5024959;28;43102;-76
2022/03/12 00:16:12;;;;;;;;;;;16.00;39.00;;;;;;5024405;28;43057;-76
2022/03/12 00:18:38;;;;;;;;;;;15.90;38.90;;;;;;5018938;28;43559;-82
2022/03/12 00:21:04;;;;;;;;;;;16.00;38.60;;;;;;5024660;28;43143;-76
2022/03/12 00:23:30;;;;;;;;;;;16.00;39.10;;;;;;5023798;28;44628;-76
2022/03/12 00:25:57;;;;;;;;;;;15.90;38.70;;;;;;5024062;28;43371;-76
2022/03/12 00:28:22;;;;;;;;;;;16.00;39.20;;;;;;5024370;28;43435;-76
2022/03/12 00:30:50;;;;;;;;;;;16.00;39.20;;;;;;5025220;28;42869;-76
2022/03/12 00:33:17;;;;;;;;;;;16.00;39.30;;;;;;5024502;28;42857;-76
2022/03/12 00:35:43;;;;;;;;;;;16.00;39.20;;;;;;5025167;28;42940;-76
2022/03/12 00:38:09;;;;;;;;;;;16.00;39.30;;;;;;5023804;28;42952;-76
2022/03/12 00:40:37;;;;;;;;;;;16.00;39.40;;;;;;5024662;28;42939;-76
2022/03/12 00:43:03;;;;;;;;;;;16.00;39.40;;;;;;5023917;28;43482;-80
2022/03/12 00:45:29;;;;;;;;;;;16.00;39.50;;;;;;5024647;28;42992;-78
2022/03/12 00:47:54;;;;;;;;;;;16.00;39.40;;;;;;5024299;28;42962;-79
2022/03/12 00:50:20;;;;;;;;;;;15.90;39.00;;;;;;5024627;28;43250;-77
2022/03/12 00:52:45;;;;;;;;;;;16.00;39.10;;;;;;5024261;28;43954;-75
2022/03/12 00:55:11;;;;;;;;;;;16.00;39.50;;;;;;5024169;28;42994;-76
2022/03/12 00:57:37;;;;;;;;;;;16.00;39.50;;;;;;5024168;28;43071;-76
2022/03/12 01:00:04;;;;;;;;;;;15.90;39.10;;;;;;5022837;28;42939;-76
2022/03/12 01:02:29;;;;;;;;;;;16.00;39.10;;;;;;5024170;28;43197;-76
2022/03/12 01:04:55;;;;;;;;;;;16.00;39.10;;;;;;5022838;28;43005;-77
2022/03/12 01:07:21;;;;;;;;;;;16.10;40.00;;;;;;5024801;28;43662;-76
2022/03/12 01:09:46;;;;;;;;;;;16.00;39.10;;;;;;5024823;28;43139;-76
2022/03/12 01:12:12;;;;;;;;;;;15.90;39.20;;;;;;5024662;28;43027;-77
2022/03/12 01:14:38;;;;;;;;;;;16.00;39.30;;;;;;5024821;28;42900;-77
2022/03/12 01:17:04;;;;;;;;;;;16.00;39.40;;;;;;5024653;28;42829;-76
2022/03/12 01:19:30;;;;;;;;;;;16.00;39.40;;;;;;5024414;28;43058;-75
2022/03/12 01:21:55;;;;;;;;;;;15.90;39.30;;;;;;5024667;28;43499;-76
2022/03/12 01:24:21;;;;;;;;;;;16.00;39.30;;;;;;5023287;28;43100;-78
2022/03/12 01:26:46;;;;;;;;;;;16.00;39.30;;;;;;5024755;28;42812;-76
2022/03/12 01:29:12;;;;;;;;;;;16.00;39.30;;;;;;5023923;28;43065;-76
2022/03/12 01:31:38;;;;;;;;;;;16.00;39.20;;;;;;5024516;28;43090;-75
2022/03/12 01:34:03;;;;;;;;;;;16.00;39.30;;;;;;5024829;28;42967;-78
2022/03/12 01:36:29;;;;;;;;;;;15.90;39.40;;;;;;5023737;28;43022;-77
2022/03/12 01:38:55;;;;;;;;;;;15.90;39.80;;;;;;5023841;28;43023;-76
2022/03/12 01:41:22;;;;;;;;;;;16.00;39.80;;;;;;5024139;28;43545;-77
2022/03/12 01:43:49;;;;;;;;;;;16.00;39.30;;;;;;5014606;28;43394;-75
2022/03/12 01:46:14;;;;;;;;;;;16.00;39.50;;;;;;5003262;28;43540;-76
2022/03/12 01:48:47;;;;;;;;;;;16.00;40.00;;;;;;5004921;28;42905;-75
2022/03/12 01:51:13;;;;;;;;;;;16.00;39.90;;;;;;5006830;28;42882;-76
2022/03/12 01:53:39;;;;;;;;;;;16.00;40.00;;;;;;5006575;28;42818;-76
2022/03/12 01:56:04;;;;;;;;;;;16.00;39.40;;;;;;5007562;28;43763;-77
2022/03/12 01:58:30;;;;;;;;;;;16.00;39.40;;;;;;5007547;28;43058;-76
2022/03/12 02:00:58;;;;;;;;;;;16.00;39.40;;;;;;5007710;28;43987;-75
2022/03/12 02:03:28;;;;;;;;;;;16.10;40.00;;;;;;5007500;28;43306;-76
2022/03/12 02:05:54;;;;;;;;;;;16.10;40.20;;;;;;5007173;28;42909;-77
2022/03/12 02:08:20;;;;;;;;;;;16.10;40.40;;;;;;5007045;28;42969;-77
2022/03/12 02:10:47;;;;;;;;;;;16.00;39.50;;;;;;5006935;28;42885;-77
2022/03/12 02:13:13;;;;;;;;;;;16.00;39.60;;;;;;5007344;28;43065;-76
2022/03/12 02:15:39;;;;;;;;;;;16.00;40.10;;;;;;5007365;28;43339;-75
2022/03/12 02:18:05;;;;;;;;;;;16.00;40.10;;;;;;5007726;28;42889;-78
2022/03/12 02:20:31;;;;;;;;;;;16.00;40.20;;;;;;5007360;28;43655;-76
2022/03/12 02:22:59;;;;;;;;;;;16.00;40.20;;;;;;5007371;28;43007;-76
2022/03/12 02:25:35;;;;;;;;;;;16.00;40.10;;;;;;5022367;28;43468;-74
2022/03/12 02:28:01;;;;;;;;;;;16.00;40.10;;;;;;5007225;28;42835;-78
2022/03/12 02:30:47;;;;;;;;;;;16.00;40.00;;;;;;5007357;28;42931;-77
2022/03/12 02:33:13;;;;;;;;;;;16.00;39.90;;;;;;5006929;28;43147;-76
2022/03/12 02:35:39;;;;;;;;;;;16.00;39.50;;;;;;5005569;28;44396;-75
2022/03/12 02:38:06;;;;;;;;;;;16.00;39.50;;;;;;5004867;28;43001;-77
2022/03/12 02:40:32;;;;;;;;;;;16.10;40.70;;;;;;5006819;28;42894;-76
2022/03/12 02:42:58;;;;;;;;;;;16.20;40.50;;;;;;5007000;28;43114;-77
2022/03/12 02:45:26;;;;;;;;;;;15.90;39.30;;;;;;5021834;28;45547;-77
2022/03/12 02:47:54;;;;;;;;;;;16.00;39.50;;;;;;5006621;28;42996;-77
2022/03/12 02:50:20;;;;;;;;;;;16.90;40.20;;;;;;5006464;28;43086;-76
2022/03/12 02:52:46;;;;;;;;;;;16.00;40.10;;;;;;5007235;28;42964;-78
2022/03/12 02:55:13;;;;;;;;;;;16.00;39.40;;;;;;5006766;28;43770;-76
2022/03/12 02:57:43;;;;;;;;;;;16.00;40.00;;;;;;5006535;28;42857;-77
2022/03/12 03:00:10;;;;;;;;;;;16.20;39.80;;;;;;5005061;28;42968;-77
2022/03/12 03:02:39;;;;;;;;;;;13.50;38.10;;;;;;5006394;28;42976;-78
2022/03/12 03:05:54;;;;;;;;;;;16.00;39.40;;;;;;5006353;28;42988;-77
2022/03/12 03:08:13;;;;;;;;;;;16.00;39.50;;;;;;5006074;28;42973;-76
2022/03/12 03:10:40;;;;;;;;;;;15.90;39.90;;;;;;5006648;28;42980;-76
2022/03/12 03:13:17;;;;;;;;;;;15.90;39.50;;;;;;5005371;28;42890;-77
2022/03/12 03:15:46;;;;;;;;;;;16.00;40.10;;;;;;5006119;28;42968;-76
2022/03/12 03:18:15;;;;;;;;;;;16.00;40.40;;;;;;5006519;28;42885;-76
2022/03/12 03:20:41;;;;;;;;;;;16.00;40.00;;;;;;5006103;28;43112;-77
2022/03/12 03:23:09;;;;;;;;;;;16.10;40.00;;;;;;5005449;28;42873;-78
2022/03/12 03:25:37;;;;;;;;;;;16.00;39.60;;;;;;5005693;28;43032;-76
2022/03/12 03:28:04;;;;;;;;;;;15.90;40.10;;;;;;5006208;28;42967;-77
2022/03/12 03:30:32;;;;;;;;;;;16.00;39.60;;;;;;5006139;28;42948;-79
2022/03/12 03:32:57;;;;;;;;;;;16.10;40.60;;;;;;5005989;28;43020;-76
2022/03/12 03:35:23;;;;;;;;;;;16.10;41.20;;;;;;5005413;28;42954;-76
2022/03/12 03:37:48;;;;;;;;;;;16.20;41.20;;;;;;5006056;28;42997;-78
2022/03/12 03:40:14;;;;;;;;;;;16.00;39.60;;;;;;5005730;28;43875;-76
2022/03/12 03:42:39;;;;;;;;;;;16.20;41.20;;;;;;5005301;28;42941;-76
2022/03/12 03:45:05;;;;;;;;;;;16.10;41.30;;;;;;5006181;28;44056;-77
2022/03/12 03:47:30;;;;;;;;;;;16.00;39.70;;;;;;5006230;28;43002;-77
2022/03/12 03:49:56;;;;;;;;;;;16.10;39.80;;;;;;5006067;28;43023;-76
2022/03/12 03:52:22;;;;;;;;;;;16.00;39.80;;;;;;5005438;28;42890;-75
2022/03/12 03:54:47;;;;;;;;;;;16.00;39.80;;;;;;5004237;28;43630;-77
2022/03/12 03:57:17;;;;;;;;;;;16.00;39.70;;;;;;5006253;28;43009;-76
2022/03/12 03:59:43;;;;;;;;;;;16.00;40.30;;;;;;5006060;28;43355;-77
2022/03/12 04:02:08;;;;;;;;;;;16.10;40.80;;;;;;5006234;28;42894;-76
2022/03/12 04:04:36;;;;;;;;;;;16.60;40.20;;;;;;5004468;28;44798;-76
2022/03/12 04:07:02;;;;;;;;;;;16.00;39.80;;;;;;5005718;28;42933;-77
2022/03/12 04:09:29;;;;;;;;;;;16.10;39.80;;;;;;5005500;28;43419;-77
2022/03/12 04:11:55;;;;;;;;;;;16.10;39.80;;;;;;5005743;28;43019;-76
2022/03/12 04:14:20;;;;;;;;;;;15.80;40.30;;;;;;5005869;28;43887;-76
2022/03/12 04:16:46;;;;;;;;;;;16.00;39.80;;;;;;5005700;28;42861;-76
2022/03/12 04:19:13;;;;;;;;;;;16.00;39.80;;;;;;5005889;28;43514;-78
2022/03/12 04:21:39;;;;;;;;;;;16.00;39.90;;;;;;5005692;28;42738;-77
2022/03/12 04:24:05;;;;;;;;;;;16.00;39.90;;;;;;5006006;28;42924;-76
2022/03/12 04:26:35;;;;;;;;;;;16.00;39.80;;;;;;5005613;28;42877;-77
2022/03/12 04:29:01;;;;;;;;;;;16.00;39.90;;;;;;5006101;28;42985;-78
2022/03/12 04:31:26;;;;;;;;;;;16.10;40.90;;;;;;5004289;28;43519;-75
2022/03/12 04:33:52;;;;;;;;;;;16.00;39.90;;;;;;5005671;28;43941;-75
2022/03/12 04:36:18;;;;;;;;;;;16.10;41.50;;;;;;5005516;28;42977;-76
2022/03/12 04:38:43;;;;;;;;;;;16.20;40.40;;;;;;5005536;28;42798;-74
2022/03/12 04:41:13;;;;;;;;;;;16.10;41.70;;;;;;5005614;28;42890;-76
2022/03/12 04:43:38;;;;;;;;;;;16.00;39.90;;;;;;5005346;28;42893;-76
2022/03/12 04:46:04;;;;;;;;;;;16.00;40.40;;;;;;5005655;28;43104;-76
2022/03/12 04:48:30;;;;;;;;;;;16.00;39.90;;;;;;5005172;28;43056;-76
2022/03/12 04:50:56;;;;;;;;;;;16.00;40.00;;;;;;5005340;28;43062;-77
2022/03/12 04:53:22;;;;;;;;;;;16.00;40.00;;;;;;5004985;28;42913;-77
2022/03/12 04:55:48;;;;;;;;;;;16.00;40.00;;;;;;5005786;28;42956;-76
2022/03/12 04:58:14;;;;;;;;;;;16.10;41.70;;;;;;5005283;28;42844;-75
2022/03/12 05:00:40;;;;;;;;;;;16.00;40.10;;;;;;5005142;28;42814;-76
2022/03/12 05:03:17;;;;;;;;;;;16.00;40.10;;;;;;5005021;28;44000;-76
2022/03/12 05:05:44;;;;;;;;;;;15.90;40.40;;;;;;5005109;28;43077;-76
2022/03/12 05:08:10;;;;;;;;;;;16.00;40.00;;;;;;5004806;28;43668;-76
2022/03/12 05:10:36;;;;;;;;;;;16.00;40.60;;;;;;5004698;28;42976;-76
2022/03/12 05:13:02;;;;;;;;;;;16.10;40.90;;;;;;5004765;28;43341;-76
2022/03/12 05:15:32;;;;;;;;;;;16.00;40.10;;;;;;5004975;28;43088;-76
2022/03/12 05:17:58;;;;;;;;;;;16.10;40.10;;;;;;5009481;28;44652;-76
2022/03/12 05:20:25;;;;;;;;;;;16.10;40.90;;;;;;5024307;28;42881;-77
2022/03/12 05:22:51;;;;;;;;;;;16.20;41.00;;;;;;5016840;28;43621;-77
2022/03/12 05:25:18;;;;;;;;;;;16.10;40.60;;;;;;5007575;28;42898;-76
2022/03/12 05:27:53;;;;;;;;;;;16.10;40.70;;;;;;5009254;28;42933;-76
2022/03/12 05:30:20;;;;;;;;;;;16.10;40.70;;;;;;5004492;28;43001;-76
2022/03/12 05:32:46;;;;;;;;;;;16.10;40.80;;;;;;5021028;28;42912;-76
2022/03/12 05:35:11;;;;;;;;;;;16.10;40.70;;;;;;5017815;28;42931;-76
2022/03/12 05:37:38;;;;;;;;;;;16.10;40.90;;;;;;5014534;28;43171;-76
2022/03/12 05:40:04;;;;;;;;;;;16.10;40.80;;;;;;5021575;28;43054;-75
2022/03/12 05:42:33;;;;;;;;;;;16.10;40.70;;;;;;5011980;28;43704;-76
2022/03/12 05:44:59;;;;;;;;;;;16.10;40.90;;;;;;5024319;28;43126;-77
2022/03/12 05:47:25;;;;;;;;;;;16.20;41.00;;;;;;5023055;28;43475;-76
2022/03/12 05:49:50;;;;;;;;;;;16.20;41.00;;;;;;5023873;28;43124;-76
2022/03/12 05:52:17;;;;;;;;;;;16.20;41.00;;;;;;5023179;28;43528;-75
2022/03/12 05:54:43;;;;;;;;;;;16.20;41.00;;;;;;5023252;28;43173;-76
2022/03/12 05:57:09;;;;;;;;;;;16.10;40.90;;;;;;5023645;28;42981;-76
2022/03/12 05:59:34;;;;;;;;;;;16.20;40.90;;;;;;5010391;28;42877;-77
2022/03/12 06:02:00;;;;;;;;;;;16.20;41.00;;;;;;5006944;28;43532;-76
2022/03/12 06:04:26;;;;;;;;;;;16.20;41.00;;;;;;5014127;28;43372;-76
2022/03/12 06:06:53;;;;;;;;;;;16.10;41.10;;;;;;5020976;28;43516;-77
2022/03/12 06:09:18;;;;;;;;;;;16.10;40.80;;;;;;5022203;28;42988;-76
2022/03/12 06:11:45;;;;;;;;;;;16.00;37.90;;;;;;5023884;28;43933;-76
2022/03/12 06:14:16;;;;;;;;;;;15.90;38.10;;;;;;5023328;28;42817;-76
2022/03/12 06:16:44;;;;;;;;;;;15.90;37.50;;;;;;5014159;28;42992;-77
2022/03/12 06:19:10;;;;;;;;;;;15.90;36.80;;;;;;5003876;28;42973;-76
2022/03/12 06:21:35;;;;;;;;;;;16.00;37.50;;;;;;5012398;28;43006;-76
2022/03/12 06:24:02;;;;;;;;;;;16.00;37.60;;;;;;5020163;28;43076;-75
2022/03/12 06:26:31;;;;;;;;;;;15.90;36.60;;;;;;5022135;28;45607;-77
2022/03/12 06:28:58;;;;;;;;;;;16.00;36.60;;;;;;5023857;28;42937;-75
2022/03/12 06:31:23;;;;;;;;;;;16.00;37.00;;;;;;5022353;28;42880;-75
2022/03/12 06:33:49;;;;;;;;;;;16.00;36.30;;;;;;5022506;28;43101;-78
2022/03/12 06:36:15;;;;;;;;;;;16.00;36.90;;;;;;5026542;28;43886;-76
2022/03/12 06:38:41;;;;;;;;;;;15.90;35.30;;;;;;5026860;28;42805;-75
2022/03/12 06:41:06;;;;;;;;;;;16.00;36.20;;;;;;5026093;28;42986;-76
2022/03/12 06:43:33;;;;;;;;;;;16.00;35.10;;;;;;5026363;28;43327;-78
2022/03/12 06:46:02;;;;;;;;;;;15.90;35.00;;;;;;5025530;28;43003;-76
2022/03/12 06:48:28;;;;;;;;;;;16.00;36.00;;;;;;5026167;28;42948;-76
2022/03/12 06:50:54;;;;;;;;;;;16.00;35.20;;;;;;5026067;28;43652;-75
2022/03/12 06:53:20;;;;;;;;;;;16.00;34.50;;;;;;5026421;28;42957;-76
2022/03/12 06:55:45;;;;;;;;;;;15.90;35.30;;;;;;5026017;28;43932;-76
2022/03/12 06:58:11;;;;;;;;;;;15.90;34.90;;;;;;5026553;28;42919;-76
2022/03/12 07:00:36;;;;;;;;;;;15.90;35.90;;;;;;5025634;28;42916;-76
2022/03/12 07:03:02;;;;;;;;;;;15.90;35.50;;;;;;5025548;28;42868;-76
2022/03/12 07:05:28;;;;;;;;;;;15.90;35.40;;;;;;5025916;28;42968;-76
2022/03/12 07:07:54;;;;;;;;;;;15.90;35.00;;;;;;5025899;28;42995;-75
2022/03/12 07:10:19;;;;;;;;;;;15.80;34.90;;;;;;5010944;28;42966;-76
2022/03/12 07:12:45;;;;;;;;;;;15.90;34.30;;;;;;5006946;28;42966;-76
2022/03/12 07:15:14;;;;;;;;;;;15.90;33.70;;;;;;5024662;28;43028;-76
2022/03/12 07:17:41;;;;;;;;;;;15.90;35.00;;;;;;5006518;28;43099;-76
2022/03/12 07:20:08;;;;;;;;;;;15.90;34.60;;;;;;5019181;28;43206;-77
2022/03/12 07:22:34;;;;;;;;;;;15.90;35.80;;;;;;5024610;28;43572;-77
2022/03/12 07:24:59;;;;;;;;;;;15.90;34.20;;;;;;5025686;28;42906;-76
2022/03/12 07:27:25;;;;;;;;;;;15.90;35.50;;;;;;5024535;28;43005;-76
2022/03/12 07:29:51;;;;;;;;;;;15.90;35.10;;;;;;5026086;28;43545;-75
2022/03/12 07:32:16;;;;;;;;;;;15.90;35.50;;;;;;5026443;28;42933;-76
2022/03/12 07:34:42;;;;;;;;;;;15.90;35.90;;;;;;5026160;28;43236;-76
2022/03/12 07:37:11;;;;;;;;;;;15.90;36.00;;;;;;5025473;28;42945;-76
2022/03/12 07:39:37;;;;;;;;;;;15.90;36.40;;;;;;5025946;28;43003;-76
2022/03/12 07:42:03;;;;;;;;;;;15.90;36.30;;;;;;5026114;28;42889;-76
2022/03/12 07:44:28;;;;;;;;;;;15.90;36.50;;;;;;5026150;28;42968;-76
2022/03/12 07:46:54;;;;;;;;;;;16.00;36.40;;;;;;5025479;28;42998;-76
2022/03/12 07:49:20;;;;;;;;;;;16.00;36.60;;;;;;5025635;28;42992;-76
2022/03/12 07:51:46;;;;;;;;;;;15.90;35.90;;;;;;5026340;28;43029;-76
2022/03/12 07:54:14;;;;;;;;;;;16.00;36.50;;;;;;5025773;28;42879;-76
2022/03/12 07:56:40;;;;;;;;;;;16.00;36.10;;;;;;5025665;28;42934;-76
2022/03/12 07:59:06;;;;;;;;;;;16.00;36.80;;;;;;5025990;28;43561;-76
2022/03/12 08:01:31;;;;;;;;;;;16.00;36.80;;;;;;5026140;28;42904;-77
2022/03/12 08:04:01;;;;;;;;;;;16.00;36.90;;;;;;5024595;28;65036;-76
2022/03/12 08:06:27;;;;;;;;;;;16.00;36.90;;;;;;5025942;28;43031;-75
2022/03/12 08:08:53;;;;;;;;;;;16.00;36.90;;;;;;5025240;28;43679;-75
2022/03/12 08:11:32;;;;;;;;;;;16.00;37.00;;;;;;5025452;28;42987;-75
2022/03/12 08:14:08;;;;;;;;;;;16.00;37.00;;;;;;5025185;28;42939;-75
2022/03/12 08:16:35;;;;;;;;;;;16.00;37.00;;;;;;5025404;28;43007;-75
2022/03/12 08:19:02;;;;;;;;;;;16.00;37.10;;;;;;5025127;28;43043;-75
2022/03/12 08:21:27;;;;;;;;;;;16.00;37.20;;;;;;5025603;28;42797;-76
2022/03/12 08:23:53;;;;;;;;;;;16.00;37.20;;;;;;5024162;28;43649;-75
2022/03/12 08:26:19;;;;;;;;;;;16.00;37.20;;;;;;5025596;28;42801;-75
2022/03/12 08:28:45;;;;;;;;;;;16.00;37.20;;;;;;5025132;28;43342;-75
2022/03/12 08:31:11;;;;;;;;;;;16.00;37.10;;;;;;5025223;28;42956;-76
2022/03/12 08:33:37;;;;;;;;;;;16.00;37.30;;;;;;5025702;28;42830;-75
2022/03/12 08:36:06;;;;;;;;;;;16.00;37.10;;;;;;5025723;28;43130;-75
2022/03/12 08:38:32;;;;;;;;;;;16.00;37.20;;;;;;5025441;28;43452;-76
2022/03/12 08:40:58;;;;;;;;;;;16.00;37.20;;;;;;5025839;28;42897;-76
2022/03/12 08:43:24;;;;;;;;;;;15.90;37.20;;;;;;5025068;28;43344;-76
2022/03/12 08:45:49;;;;;;;;;;;16.00;37.30;;;;;;5025871;28;42972;-75
2022/03/12 08:48:15;;;;;;;;;;;16.00;37.30;;;;;;5024938;28;43471;-75
2022/03/12 08:50:42;;;;;;;;;;;16.00;37.30;;;;;;5025084;28;42822;-76
2022/03/12 08:53:08;;;;;;;;;;;16.10;37.30;;;;;;5025220;28;42995;-76
2022/03/12 08:55:33;;;;;;;;;;;16.00;37.40;;;;;;5025419;28;42975;-76
2022/03/12 08:57:59;;;;;;;;;;;16.00;36.90;;;;;;5023865;28;43942;-76
2022/03/12 09:00:24;;;;;;;;;;;16.00;37.50;;;;;;5025324;28;42909;-76
2022/03/12 09:02:50;;;;;;;;;;;16.00;37.40;;;;;;5025323;28;42907;-76
2022/03/12 09:05:16;;;;;;;;;;;16.00;37.50;;;;;;5025094;28;42921;-75
2022/03/12 09:07:42;;;;;;;;;;;16.00;37.40;;;;;;5024973;28;42955;-76
2022/03/12 09:10:11;;;;;;;;;;;16.00;37.40;;;;;;5025107;28;42872;-76
2022/03/12 09:12:37;;;;;;;;;;;16.00;37.40;;;;;;5024515;28;43069;-76
2022/03/12 09:15:03;;;;;;;;;;;16.00;37.50;;;;;;5024614;28;43087;-76
2022/03/12 09:17:29;;;;;;;;;;;16.00;37.40;;;;;;5024973;28;42954;-76
2022/03/12 09:19:54;;;;;;;;;;;16.00;37.50;;;;;;5024838;28;42989;-75
2022/03/12 09:22:20;;;;;;;;;;;16.00;37.50;;;;;;5024747;28;42954;-76
2022/03/12 09:24:46;;;;;;;;;;;16.00;37.50;;;;;;5024892;28;42956;-78
2022/03/12 09:27:11;;;;;;;;;;;16.00;37.60;;;;;;5024584;28;43849;-76
2022/03/12 09:29:38;;;;;;;;;;;16.00;37.40;;;;;;5022917;28;42835;-75
2022/03/12 09:32:04;;;;;;;;;;;16.00;37.40;;;;;;5024459;28;43529;-74
2022/03/12 09:34:30;;;;;;;;;;;16.00;37.30;;;;;;5024549;28;42919;-76
2022/03/12 09:36:55;;;;;;;;;;;16.00;36.80;;;;;;5024211;28;43991;-75
2022/03/12 09:39:21;;;;;;;;;;;16.00;37.30;;;;;;5024547;28;43077;-76
2022/03/12 09:41:47;;;;;;;;;;;16.00;36.80;;;;;;5024605;28;43438;-79
2022/03/12 09:44:12;;;;;;;;;;;16.00;37.30;;;;;;5023943;28;42908;-75
2022/03/12 09:46:38;;;;;;;;;;;16.00;36.80;;;;;;5024288;28;44030;-74
2022/03/12 09:49:04;;;;;;;;;;;16.00;36.90;;;;;;5024410;28;42989;-77
2022/03/12 09:51:31;;;;;;;;;;;16.00;36.90;;;;;;5023958;28;42966;-75
2022/03/12 09:54:00;;;;;;;;;;;16.00;37.50;;;;;;5024705;28;42895;-76
2022/03/12 09:56:25;;;;;;;;;;;16.00;37.30;;;;;;5024748;28;42789;-76
2022/03/12 09:58:51;;;;;;;;;;;16.00;37.50;;;;;;5024532;28;42976;-77
2022/03/12 10:01:17;;;;;;;;;;;16.00;37.40;;;;;;5024049;28;43486;-77
2022/03/12 10:03:43;;;;;;;;;;;16.00;37.40;;;;;;5024426;28;42844;-78
2022/03/12 10:06:10;;;;;;;;;;;16.00;37.60;;;;;;5024298;28;43812;-78
2022/03/12 10:08:35;;;;;;;;;;;16.00;37.40;;;;;;5024527;28;43015;-77
2022/03/12 10:11:01;;;;;;;;;;;16.00;37.40;;;;;;5027240;28;43618;-76
2022/03/12 10:13:27;;;;;;;;;;;16.00;36.80;;;;;;5027950;28;42900;-78
2022/03/12 10:15:53;;;;;;;;;;;16.00;36.80;;;;;;5027767;28;43035;-76
2022/03/12 10:18:20;;;;;;;;;;;16.00;36.80;;;;;;5026930;28;42979;-80
2022/03/12 10:20:46;;;;;;;;;;;16.00;36.70;;;;;;5026902;28;43067;-77
2022/03/12 10:23:11;;;;;;;;;;;16.00;36.70;;;;;;5027603;28;42972;-78
2022/03/12 10:25:38;;;;;;;;;;;16.20;38.50;;;;;;5027459;28;42932;-77
2022/03/12 10:28:04;;;;;;;;;;;16.10;38.40;;;;;;5027706;28;42868;-77
2022/03/12 10:30:29;;;;;;;;;;;16.20;39.00;;;;;;5027408;28;43110;-77
2022/03/12 10:32:55;;;;;;;;;;;16.20;38.40;;;;;;5027495;28;42923;-79
2022/03/12 10:35:22;;;;;;;;;;;16.00;36.70;;;;;;5027471;28;43689;-77
2022/03/12 10:37:48;;;;;;;;;;;16.20;37.60;;;;;;5027145;28;42980;-79
2022/03/12 10:40:15;;;;;;;;;;;16.20;37.50;;;;;;5027401;28;43509;-77
2022/03/12 10:42:46;;;;;;;;;;;16.10;36.60;;;;;;5025404;28;42973;-77
2022/03/12 10:45:16;;;;;;;;;;;16.20;37.20;;;;;;5026990;28;43939;-81
2022/03/12 10:47:47;;;;;;;;;;;16.20;37.20;;;;;;5027283;28;42960;-77
2022/03/12 10:50:15;;;;;;;;;;;16.20;37.20;;;;;;5026856;28;43548;-76
2022/03/12 10:52:45;;;;;;;;;;;16.20;37.70;;;;;;5027282;28;42794;-77
2022/03/12 10:55:12;;;;;;;;;;;16.10;37.20;;;;;;5025795;28;43534;-77
2022/03/12 10:57:37;;;;;;;;;;;16.10;36.70;;;;;;5027568;28;42837;-76
2022/03/12 11:00:08;;;;;;;;;;;16.10;36.80;;;;;;5026726;28;42931;-76
2022/03/12 11:02:34;;;;;;;;;;;16.30;37.80;;;;;;5027050;28;43064;-75
2022/03/12 11:05:04;;;;;;;;;;;16.10;36.80;;;;;;5027154;28;42950;-77
2022/03/12 11:07:30;;;;;;;;;;;16.10;37.30;;;;;;5026903;28;42888;-75
2022/03/12 11:09:56;;;;;;;;;;;16.10;36.90;;;;;;5026345;28;42983;-76
2022/03/12 11:12:35;;;;;;;;;;;16.10;37.40;;;;;;5026625;28;42867;-76
2022/03/12 11:15:05;;;;;;;;;;;16.10;37.20;;;;;;5026181;28;43323;-77
2022/03/12 11:17:41;;;;;;;;;;;16.20;37.20;;;;;;5026939;28;42794;-75
2022/03/12 11:20:06;;;;;;;;;;;16.10;37.10;;;;;;5026827;28;43583;-75
2022/03/12 11:22:32;;;;;;;;;;;18.30;38.30;;;;;;5024497;28;43093;-75
2022/03/12 11:24:58;;;;;;;;;;;16.10;36.80;;;;;;5025073;28;45297;-76
2022/03/12 11:27:34;;;;;;;;;;;16.20;37.20;;;;;;5026098;28;42888;-76
2022/03/12 11:30:03;;;;;;;;;;;15.30;36.80;;;;;;5024421;28;43465;-76
2022/03/12 11:32:34;;;;;;;;;;;16.10;36.80;;;;;;5024001;28;43528;-75
2022/03/12 11:35:10;;;;;;;;;;;16.20;37.30;;;;;;5015289;28;44038;-75
2022/03/12 11:37:37;;;;;;;;;;;16.20;37.20;;;;;;5015245;28;42960;-75
2022/03/12 11:40:04;;;;;;;;;;;16.20;37.20;;;;;;5026065;28;43672;-75
2022/03/12 11:42:33;;;;;;;;;;;16.20;36.80;;;;;;5024429;28;43041;-77
2022/03/12 11:45:00;;;;;;;;;;;16.30;37.30;;;;;;5025626;28;42947;-76
2022/03/12 11:47:26;;;;;;;;;;;16.10;36.90;;;;;;5025905;28;43133;-76
2022/03/12 11:49:52;;;;;;;;;;;16.10;37.00;;;;;;5024335;28;43521;-76
2022/03/12 11:52:19;;;;;;;;;;;16.20;37.90;;;;;;5026206;28;42929;-76
2022/03/12 11:54:45;;;;;;;;;;;16.30;38.00;;;;;;5025340;28;43261;-76
2022/03/12 11:57:11;;;;;;;;;;;16.30;37.90;;;;;;5007199;28;42931;-75
2022/03/12 11:59:38;;;;;;;;;;;16.10;37.00;;;;;;5020952;28;43936;-76
2022/03/12 12:02:22;;;;;;;;;;;16.30;38.60;;;;;;5025835;28;43030;-76
2022/03/12 12:04:49;;;;;;;;;;;16.20;38.00;;;;;;5025703;28;43444;-77
2022/03/12 12:07:15;;;;;;;;;;;16.20;37.80;;;;;;5023017;28;43100;-79
2022/03/12 12:09:41;;;;;;;;;;;16.10;37.20;;;;;;5018928;28;43107;-76
2022/03/12 12:12:13;;;;;;;;;;;16.20;38.00;;;;;;5017963;28;43034;-76
2022/03/12 12:14:40;;;;;;;;;;;16.00;35.30;;;;;;5018846;28;43754;-77
2022/03/12 12:17:05;;;;;;;;;;;15.80;31.50;;;;;;5024487;28;42986;-76
2022/03/12 12:19:31;;;;;;;;;;;15.60;30.40;;;;;;5024149;28;42932;-76
2022/03/12 12:21:57;;;;;;;;;;;15.60;29.20;;;;;;5022229;28;43522;-75
2022/03/12 12:24:27;;;;;;;;;;;15.60;29.10;;;;;;5016884;28;43536;-78
2022/03/12 12:27:00;;;;;;;;;;;15.90;29.00;;;;;;5024390;28;43226;-76
2022/03/12 12:29:41;;;;;;;;;;;15.40;28.60;;;;;;5015785;28;42842;-75
2022/03/12 12:32:10;;;;;;;;;;;15.30;28.40;;;;;;5013644;28;43132;-76
2022/03/12 12:34:37;;;;;;;;;;;15.40;28.60;;;;;;5015812;28;43983;-75
2022/03/12 12:37:03;;;;;;;;;;;15.60;29.00;;;;;;5017620;28;42947;-75
2022/03/12 12:39:29;;;;;;;;;;;15.70;30.30;;;;;;5025101;28;43538;-75
2022/03/12 12:42:02;;;;;;;;;;;15.80;31.20;;;;;;5023337;28;42925;-76
2022/03/12 12:44:33;;;;;;;;;;;15.80;32.40;;;;;;5024961;28;43155;-75
2022/03/12 12:46:58;;;;;;;;;;;15.80;32.40;;;;;;5024595;28;42917;-75
2022/03/12 12:49:37;;;;;;;;;;;15.90;33.00;;;;;;5024782;28;44436;-75
2022/03/12 12:52:03;;;;;;;;;;;15.90;33.90;;;;;;5024975;28;42844;-75
2022/03/12 12:54:48;;;;;;;;;;;15.90;32.60;;;;;;5024242;28;43903;-75
2022/03/12 12:57:14;;;;;;;;;;;16.00;32.30;;;;;;5024011;28;42931;-76
2022/03/12 12:59:44;;;;;;;;;;;15.80;32.00;;;;;;5023033;28;44990;-77
2022/03/12 13:02:10;;;;;;;;;;;15.90;32.60;;;;;;5015777;28;42999;-77
2022/03/12 13:04:48;;;;;;;;;;;15.90;32.40;;;;;;5013461;28;43396;-78
2022/03/12 13:07:21;;;;;;;;;;;15.80;31.10;;;;;;5014581;28;43069;-76
2022/03/12 13:09:47;;;;;;;;;;;15.60;30.50;;;;;;5016243;28;43688;-76
2022/03/12 13:12:12;;;;;;;;;;;15.60;30.80;;;;;;5015872;28;43256;-77
2022/03/12 13:14:42;;;;;;;;;;;15.50;28.00;;;;;;5018370;28;43038;-77
2022/03/12 13:17:07;;;;;;;;;;;15.50;28.30;;;;;;5014897;28;43070;-77
2022/03/12 13:19:33;;;;;;;;;;;15.40;27.70;;;;;;5012802;28;42932;-82
2022/03/12 13:22:00;;;;;;;;;;;15.30;27.70;;;;;;5015668;28;43528;-77
2022/03/12 13:24:29;;;;;;;;;;;15.30;28.30;;;;;;5013965;28;42904;-81
2022/03/12 13:26:58;;;;;;;;;;;15.30;27.40;;;;;;5016605;28;43027;-76
2022/03/12 13:29:26;;;;;;;;;;;15.40;27.30;;;;;;5042314;28;42893;-78
2022/03/12 13:31:54;;;;;;;;;;;15.20;27.10;;;;;;5016698;28;42949;-77
2022/03/12 13:34:20;;;;;;;;;;;15.30;27.20;;;;;;5012386;28;43040;-76
2022/03/12 13:36:47;;;;;;;;;;;15.20;27.20;;;;;;5014010;28;42932;-77
2022/03/12 13:39:14;;;;;;;;;;;15.20;27.50;;;;;;5014903;28;42881;-76
2022/03/12 13:41:41;;;;;;;;;;;15.10;27.10;;;;;;5015082;28;42991;-76
2022/03/12 13:44:07;;;;;;;;;;;15.20;27.80;;;;;;5013462;28;43325;-76
2022/03/12 13:46:33;;;;;;;;;;;15.20;27.00;;;;;;5019617;28;43157;-76
2022/03/12 13:49:02;;;;;;;;;;;15.10;26.90;;;;;;5018610;28;43325;-77
2022/03/12 13:51:28;;;;;;;;;;;15.50;27.60;;;;;;5018632;28;43002;-76
2022/03/12 13:53:57;;;;;;;;;;;15.20;27.20;;;;;;5017413;28;43070;-77
2022/03/12 13:56:24;;;;;;;;;;;15.70;27.40;;;;;;5018699;28;43061;-77
2022/03/12 13:58:53;;;;;;;;;;;15.20;27.10;;;;;;5019322;28;44075;-77
2022/03/12 14:01:30;;;;;;;;;;;15.10;27.50;;;;;;5020517;28;42981;-82
2022/03/12 14:03:55;;;;;;;;;;;15.10;27.10;;;;;;5015145;28;44930;-77
2022/03/12 14:06:27;;;;;;;;;;;15.10;27.50;;;;;;5016305;28;43022;-76
2022/03/12 14:08:54;;;;;;;;;;;15.10;27.00;;;;;;5016123;28;44098;-79
2022/03/12 14:11:41;;;;;;;;;;;15.20;27.40;;;;;;5016929;28;43006;-77
2022/03/12 14:14:08;;;;;;;;;;;15.20;27.10;;;;;;5015999;28;43907;-77
2022/03/12 14:16:36;;;;;;;;;;;15.10;27.20;;;;;;5017656;28;43165;-77